createdAt,value
2022-11-24T00:02:04.738Z,4.30
2022-11-24T00:04:34.246Z,4.50
2022-11-24T00:07:06.505Z,2.80
2022-11-24T00:09:35.523Z,4.33
2022-11-24T00:12:03.769Z,3.77
2022-11-24T00:14:34.675Z,4.00
2022-11-24T00:17:03.720Z,3.50
2022-11-24T00:19:31.891Z,4.10
2022-11-24T00:22:00.467Z,3.23
2022-11-24T00:24:30.821Z,3.77
2022-11-24T00:26:59.241Z,3.70
2022-11-24T00:29:27.391Z,4.93
2022-11-24T00:31:58.590Z,3.80
2022-11-24T00:34:27.310Z,4.70
2022-11-24T00:36:55.446Z,5.13
2022-11-24T00:39:32.215Z,4.67
2022-11-24T00:42:02.919Z,3.13
2022-11-24T00:44:31.317Z,4.77
2022-11-24T00:46:59.670Z,4.80
2022-11-24T00:49:28.763Z,3.43
2022-11-24T00:51:59.299Z,3.67
2022-11-24T00:54:28.126Z,3.13
2022-11-24T00:56:56.242Z,3.90
2022-11-24T00:59:26.459Z,4.00
2022-11-24T01:01:58.265Z,4.00
2022-11-24T01:04:26.884Z,4.30
2022-11-24T01:06:56.047Z,4.00
2022-11-24T01:09:27.646Z,2.80
2022-11-24T01:12:05.056Z,4.13
2022-11-24T01:14:35.553Z,3.50
2022-11-24T01:17:04.105Z,3.77
2022-11-24T01:19:32.415Z,3.67
2022-11-24T01:22:01.036Z,3.17
2022-11-24T01:24:30.075Z,3.30
2022-11-24T01:26:59.215Z,4.00
2022-11-24T01:29:28.577Z,3.60
2022-11-24T01:31:58.564Z,3.73
2022-11-24T01:34:29.110Z,3.30
2022-11-24T01:37:00.607Z,4.73
2022-11-24T01:39:31.154Z,3.40
2022-11-24T01:42:04.973Z,3.27
2022-11-24T01:44:33.880Z,3.40
2022-11-24T01:47:16.832Z,3.13
2022-11-24T01:49:49.324Z,3.63
2022-11-24T01:52:20.479Z,4.13
2022-11-24T01:54:52.573Z,3.60
2022-11-24T01:57:24.968Z,2.83
2022-11-24T02:00:01.866Z,4.10
2022-11-24T02:02:47.231Z,3.73
2022-11-24T02:05:21.886Z,3.07
2022-11-24T02:08:20.274Z,3.10
2022-11-24T02:10:51.511Z,3.70
2022-11-24T02:13:21.102Z,4.60
2022-11-24T02:15:52.643Z,3.00
2022-11-24T02:18:25.185Z,3.83
2022-11-24T02:20:53.839Z,4.10
2022-11-24T02:23:25.587Z,3.30
2022-11-24T02:26:10.201Z,3.60
2022-11-24T02:28:42.206Z,3.93
2022-11-24T02:31:13.699Z,3.93
2022-11-24T02:33:44.783Z,3.70
2022-11-24T02:36:13.882Z,3.90
2022-11-24T02:38:42.058Z,3.37
2022-11-24T02:41:15.020Z,3.20
2022-11-24T02:43:48.776Z,4.53
2022-11-24T02:46:19.336Z,4.30
2022-11-24T02:48:48.408Z,3.37
2022-11-24T02:51:18.903Z,3.80
2022-11-24T02:53:47.985Z,4.00
2022-11-24T02:56:18.920Z,4.80
2022-11-24T02:58:51.885Z,2.87
2022-11-24T03:01:20.623Z,2.90
2022-11-24T03:03:48.820Z,3.10
2022-11-24T03:06:20.100Z,3.80
2022-11-24T03:08:48.213Z,3.93
2022-11-24T03:11:17.042Z,3.80
2022-11-24T03:13:51.402Z,3.33
2022-11-24T03:16:19.645Z,3.73
2022-11-24T03:18:49.019Z,3.67
2022-11-24T03:21:19.733Z,3.53
2022-11-24T03:23:48.059Z,3.43
2022-11-24T03:26:19.361Z,3.00
2022-11-24T03:28:57.143Z,4.57
2022-11-24T03:31:26.396Z,3.60
2022-11-24T03:33:54.658Z,2.97
2022-11-24T03:36:22.863Z,3.40
2022-11-24T03:38:51.018Z,3.40
2022-11-24T03:41:19.801Z,3.27
2022-11-24T03:43:51.874Z,3.30
2022-11-24T03:46:28.072Z,4.33
2022-11-24T03:48:57.525Z,4.10
2022-11-24T03:51:25.682Z,4.20
2022-11-24T03:53:54.743Z,3.47
2022-11-24T03:56:22.895Z,3.40
2022-11-24T03:58:55.644Z,4.50
2022-11-24T04:01:23.928Z,3.17
2022-11-24T04:03:53.665Z,3.70
2022-11-24T04:06:23.933Z,3.87
2022-11-24T04:08:53.026Z,3.40
2022-11-24T04:11:41.887Z,3.77
2022-11-24T04:16:56.622Z,3.40
2022-11-24T04:19:25.539Z,4.77
2022-11-24T04:21:53.598Z,4.03
2022-11-24T04:24:24.275Z,4.07
2022-11-24T04:26:59.170Z,3.40
2022-11-24T04:29:29.034Z,3.73
2022-11-24T04:31:57.525Z,3.50
2022-11-24T04:34:25.516Z,3.97
2022-11-24T04:36:54.002Z,3.40
2022-11-24T04:39:25.162Z,5.00
2022-11-24T04:41:56.983Z,2.97
2022-11-24T04:44:27.198Z,4.10
2022-11-24T04:46:57.529Z,3.87
2022-11-24T04:49:25.579Z,3.63
2022-11-24T04:54:37.111Z,4.30
2022-11-24T04:57:08.018Z,4.93
2022-11-24T04:59:36.103Z,4.50
2022-11-24T05:02:05.947Z,3.90
2022-11-24T05:04:34.349Z,3.60
2022-11-24T05:07:02.870Z,3.93
2022-11-24T05:09:55.013Z,2.70
2022-11-24T05:12:19.994Z,5.00
2022-11-24T05:14:48.486Z,4.57
2022-11-24T05:17:17.924Z,4.60
2022-11-24T05:19:52.680Z,3.73
2022-11-24T05:22:20.734Z,4.00
2022-11-24T05:24:49.186Z,4.20
2022-11-24T05:27:18.161Z,3.73
2022-11-24T05:29:46.276Z,3.40
2022-11-24T05:32:15.215Z,4.07
2022-11-24T05:34:44.728Z,4.70
2022-11-24T05:37:13.722Z,3.27
2022-11-24T05:39:42.187Z,3.90
2022-11-24T05:42:28.432Z,4.90
2022-11-24T05:44:57.818Z,3.60
2022-11-24T05:47:26.456Z,4.27
2022-11-24T05:49:56.395Z,4.40
2022-11-24T05:52:24.971Z,3.37
2022-11-24T05:54:53.428Z,4.60
2022-11-24T05:57:23.815Z,4.40
2022-11-24T05:59:52.814Z,4.10
2022-11-24T06:02:21.179Z,5.20
2022-11-24T06:04:50.436Z,4.63
2022-11-24T06:07:20.431Z,4.50
2022-11-24T06:09:49.589Z,4.27
2022-11-24T06:12:18.217Z,4.07
2022-11-24T06:14:46.226Z,4.20
2022-11-24T06:17:15.596Z,4.90
2022-11-24T06:19:56.262Z,4.30
2022-11-24T06:22:26.564Z,4.57
2022-11-24T06:24:54.644Z,3.77
2022-11-24T06:27:23.839Z,5.23
2022-11-24T06:29:52.219Z,5.00
2022-11-24T06:32:22.602Z,4.93
2022-11-24T06:34:51.051Z,4.90
2022-11-24T06:37:21.985Z,5.20
2022-11-24T06:39:53.683Z,4.50
2022-11-24T06:42:25.004Z,5.07
2022-11-24T06:44:53.479Z,4.97
2022-11-24T06:47:21.543Z,5.20
2022-11-24T06:49:52.339Z,4.20
2022-11-24T06:52:20.341Z,4.50
2022-11-24T06:54:55.912Z,3.67
2022-11-24T06:57:23.954Z,4.03
2022-11-24T06:59:52.515Z,3.53
2022-11-24T07:02:20.472Z,4.40
2022-11-24T07:04:48.927Z,4.67
2022-11-24T07:07:17.942Z,4.27
2022-11-24T07:09:48.945Z,3.50
2022-11-24T07:12:18.302Z,4.73
2022-11-24T07:14:49.543Z,3.80
2022-11-24T07:17:25.102Z,2.77
2022-11-24T07:19:53.612Z,4.00
2022-11-24T07:22:21.626Z,3.63
2022-11-24T07:24:51.014Z,3.40
2022-11-24T07:27:21.547Z,3.20
2022-11-24T07:29:49.660Z,3.60
2022-11-24T07:32:21.281Z,2.63
2022-11-24T07:34:49.504Z,3.10
2022-11-24T07:37:18.006Z,2.80
2022-11-24T07:39:46.583Z,2.33
2022-11-24T07:42:14.630Z,3.00
2022-11-24T07:44:44.009Z,2.80
2022-11-24T07:47:12.504Z,3.23
2022-11-24T07:49:40.985Z,3.67
2022-11-24T07:52:09.427Z,2.90
2022-11-24T07:54:40.395Z,2.93
2022-11-24T07:57:08.951Z,3.17
2022-11-24T07:59:37.655Z,3.03
2022-11-24T08:02:07.814Z,2.87
2022-11-24T08:04:40.444Z,3.03
2022-11-24T08:07:08.505Z,2.03
2022-11-24T08:09:37.049Z,2.50
2022-11-24T08:12:07.363Z,2.63
2022-11-24T08:14:36.545Z,2.23
2022-11-24T08:17:06.116Z,2.50
2022-11-24T08:19:35.227Z,1.30
2022-11-24T08:22:03.231Z,2.10
2022-11-24T08:24:32.431Z,2.03
2022-11-24T08:27:01.341Z,2.10
2022-11-24T08:29:30.585Z,1.30
2022-11-24T08:32:01.461Z,1.90
2022-11-24T08:34:35.873Z,1.47
2022-11-24T08:37:06.008Z,2.27
2022-11-24T08:39:34.094Z,1.73
2022-11-24T08:42:03.015Z,1.37
2022-11-24T08:44:30.997Z,1.60
2022-11-24T08:46:59.519Z,1.13
2022-11-24T08:49:27.799Z,1.80
2022-11-24T08:52:02.260Z,1.30
2022-11-24T08:54:30.355Z,1.20
2022-11-24T08:56:58.347Z,1.77
2022-11-24T08:59:26.878Z,1.87
2022-11-24T09:01:55.013Z,1.60
2022-11-24T09:04:23.311Z,1.73
2022-11-24T09:06:53.345Z,1.87
2022-11-24T09:09:31.163Z,2.03
2022-11-24T09:11:59.384Z,1.53
2022-11-24T09:14:27.377Z,1.73
2022-11-24T09:16:55.807Z,1.40
2022-11-24T09:19:26.895Z,1.70
2022-11-24T09:21:55.610Z,2.00
2022-11-24T09:24:25.219Z,2.60
2022-11-24T09:26:55.414Z,1.40
2022-11-24T09:29:23.998Z,2.00
2022-11-24T09:32:05.077Z,1.60
2022-11-24T09:34:35.633Z,1.90
2022-11-24T09:37:04.127Z,1.77
2022-11-24T09:39:34.150Z,1.97
2022-11-24T09:42:17.164Z,1.90
2022-11-24T09:45:26.257Z,2.07
2022-11-24T09:48:09.542Z,1.90
2022-11-24T09:50:39.215Z,1.77
2022-11-24T09:53:16.631Z,1.70
2022-11-24T09:55:52.266Z,1.77
2022-11-24T09:58:32.086Z,2.10
2022-11-24T10:01:06.832Z,2.57
2022-11-24T10:03:39.245Z,3.30
2022-11-24T10:06:21.619Z,2.20
2022-11-24T10:09:15.720Z,2.90
2022-11-24T10:11:58.389Z,2.43
2022-11-24T10:14:54.058Z,2.90
2022-11-24T10:17:34.322Z,2.67
2022-11-24T10:20:09.877Z,2.63
2022-11-24T10:22:51.478Z,1.90
2022-11-24T10:25:25.959Z,2.87
2022-11-24T10:28:00.938Z,2.57
2022-11-24T10:30:29.684Z,2.37
2022-11-24T10:33:01.773Z,2.60
2022-11-24T10:35:36.567Z,2.73
2022-11-24T10:38:15.634Z,3.93
2022-11-24T10:41:02.724Z,2.70
2022-11-24T10:43:37.435Z,4.17
2022-11-24T10:46:12.749Z,2.63
2022-11-24T10:48:45.341Z,3.47
2022-11-24T10:51:39.577Z,3.43
2022-11-24T10:54:16.541Z,3.73
2022-11-24T10:56:48.012Z,2.37
2022-11-24T10:59:38.395Z,3.20
2022-11-24T11:02:30.284Z,2.90
2022-11-24T11:05:20.951Z,3.50
2022-11-24T11:07:49.239Z,3.00
2022-11-24T11:10:21.821Z,3.43
2022-11-24T11:12:50.629Z,3.30
2022-11-24T11:15:26.145Z,2.50
2022-11-24T11:17:58.830Z,3.03
2022-11-24T11:20:31.474Z,3.17
2022-11-24T11:23:02.585Z,3.60
2022-11-24T11:25:35.432Z,3.20
2022-11-24T11:28:28.660Z,3.23
2022-11-24T11:31:19.052Z,3.93
2022-11-24T11:36:46.816Z,3.83
2022-11-24T11:39:31.852Z,2.80
2022-11-24T11:42:10.377Z,2.77
2022-11-24T11:44:43.051Z,3.30
2022-11-24T11:47:19.968Z,3.27
2022-11-24T11:49:49.336Z,2.73
2022-11-24T11:52:43.290Z,2.40
2022-11-24T11:55:49.676Z,2.57
2022-11-24T11:58:56.474Z,2.93
2022-11-24T12:01:37.944Z,2.77
2022-11-24T12:04:17.578Z,3.37
2022-11-24T12:07:07.158Z,3.13
2022-11-24T12:09:48.293Z,3.20
2022-11-24T12:12:37.913Z,3.07
2022-11-24T12:15:14.573Z,3.40
2022-11-24T12:17:49.434Z,3.10
2022-11-24T12:20:40.988Z,3.07
2022-11-24T12:23:19.753Z,2.90
2022-11-24T12:26:01.566Z,3.50
2022-11-24T12:28:43.184Z,2.57
2022-11-24T12:31:29.196Z,3.03
2022-11-24T12:34:18.762Z,2.80
2022-11-24T12:37:03.185Z,2.40
2022-11-24T12:39:36.972Z,3.80
2022-11-24T12:42:13.493Z,3.37
2022-11-24T12:44:59.242Z,2.70
2022-11-24T12:47:41.872Z,3.00
2022-11-24T12:50:13.174Z,2.80
2022-11-24T12:52:55.567Z,2.80
2022-11-24T12:55:28.615Z,3.70
2022-11-24T12:58:10.613Z,3.77
2022-11-24T13:00:53.744Z,3.93
2022-11-24T13:03:32.523Z,2.37
2022-11-24T13:06:07.262Z,3.53
2022-11-24T13:08:46.823Z,3.23
2022-11-24T13:11:40.649Z,3.50
2022-11-24T13:17:27.884Z,3.30
2022-11-24T13:19:49.278Z,3.20
2022-11-24T13:22:24.145Z,2.77
2022-11-24T13:25:20.527Z,3.20
2022-11-24T13:27:52.810Z,3.43
2022-11-24T13:30:56.006Z,3.43
2022-11-24T13:33:35.643Z,2.70
2022-11-24T13:36:35.770Z,3.00
2022-11-24T13:39:17.971Z,3.53
2022-11-24T13:42:44.088Z,3.50
2022-11-24T13:45:04.704Z,3.50
2022-11-24T13:47:39.333Z,3.20
2022-11-24T13:50:24.899Z,3.40
2022-11-24T13:53:01.608Z,3.83
2022-11-24T13:55:33.610Z,3.57
2022-11-24T13:58:29.563Z,2.80
2022-11-24T14:01:12.979Z,3.03
2022-11-24T14:04:07.296Z,3.07
2022-11-24T14:06:40.918Z,3.13
2022-11-24T14:09:25.445Z,2.80
2022-11-24T14:12:15.021Z,2.63
2022-11-24T14:14:49.102Z,3.13
2022-11-24T14:17:20.250Z,3.87
2022-11-24T14:19:50.021Z,3.30
2022-11-24T14:22:21.315Z,4.70
2022-11-24T14:24:55.937Z,3.67
2022-11-24T14:27:32.046Z,3.00
2022-11-24T14:30:03.171Z,3.53
2022-11-24T14:32:32.335Z,4.27
2022-11-24T14:35:00.372Z,2.70
2022-11-24T14:37:29.022Z,3.73
2022-11-24T14:39:57.291Z,4.60
2022-11-24T14:42:28.617Z,3.03
2022-11-24T14:44:58.528Z,3.17
2022-11-24T14:47:32.450Z,3.50
2022-11-24T14:50:19.984Z,3.57
2022-11-24T14:52:54.767Z,4.00
2022-11-24T14:55:29.204Z,3.93
2022-11-24T14:57:57.848Z,3.57
2022-11-24T15:00:29.769Z,3.80
2022-11-24T15:03:20.394Z,4.97
2022-11-24T15:05:55.370Z,4.17
2022-11-24T15:08:27.691Z,4.50
2022-11-24T15:11:01.465Z,3.43
2022-11-24T15:13:39.537Z,3.53
2022-11-24T15:16:17.209Z,4.40
2022-11-24T15:18:49.955Z,2.67
2022-11-24T15:21:31.806Z,3.30
2022-11-24T15:24:10.238Z,4.10
2022-11-24T15:26:42.178Z,4.17
2022-11-24T15:29:13.413Z,3.80
2022-11-24T15:31:51.034Z,4.67
2022-11-24T15:34:21.953Z,3.93
2022-11-24T15:36:50.446Z,3.63
2022-11-24T15:39:18.457Z,3.77
2022-11-24T15:41:54.732Z,3.97
2022-11-24T15:44:23.342Z,3.63
2022-11-24T15:46:53.307Z,3.70
2022-11-24T15:49:24.687Z,3.93
2022-11-24T15:51:52.959Z,3.93
2022-11-24T15:54:23.871Z,4.80
2022-11-24T15:56:51.925Z,4.80
2022-11-24T15:59:21.162Z,4.13
2022-11-24T16:01:52.708Z,4.10
2022-11-24T16:04:21.341Z,4.67
2022-11-24T16:06:50.670Z,4.70
2022-11-24T16:09:19.636Z,4.80
2022-11-24T16:11:47.628Z,3.63
2022-11-24T16:14:22.070Z,4.20
2022-11-24T16:16:50.274Z,5.10
2022-11-24T16:19:18.358Z,4.27
2022-11-24T16:21:50.578Z,4.30
2022-11-24T16:24:18.840Z,4.57
2022-11-24T16:26:49.212Z,4.07
2022-11-24T16:29:18.184Z,3.87
2022-11-24T16:31:49.396Z,3.83
2022-11-24T16:34:18.231Z,3.63
2022-11-24T16:36:53.686Z,4.53
2022-11-24T16:39:22.134Z,5.27
2022-11-24T16:41:53.196Z,3.97
2022-11-24T16:44:21.554Z,3.53
2022-11-24T16:46:50.534Z,3.63
2022-11-24T16:49:21.959Z,4.70
2022-11-24T16:51:52.692Z,3.63
2022-11-24T16:54:22.247Z,4.10
2022-11-24T16:56:51.522Z,4.70
2022-11-24T16:59:22.746Z,3.77
2022-11-24T17:01:51.947Z,4.67
2022-11-24T17:04:20.032Z,4.53
2022-11-24T17:06:48.463Z,4.77
2022-11-24T17:09:17.364Z,4.57
2022-11-24T17:11:51.589Z,5.13
2022-11-24T17:14:25.491Z,4.23
2022-11-24T17:16:55.656Z,4.37
2022-11-24T17:19:23.721Z,5.23
2022-11-24T17:21:52.170Z,4.60
2022-11-24T17:24:22.677Z,4.80
2022-11-24T17:26:52.270Z,4.50
2022-11-24T17:29:22.924Z,5.20
2022-11-24T17:31:51.824Z,3.90
2022-11-24T17:34:20.150Z,4.30
2022-11-24T17:36:48.485Z,3.90
2022-11-24T17:39:20.296Z,3.37
2022-11-24T17:41:56.197Z,3.40
2022-11-24T17:44:24.718Z,3.17
2022-11-24T17:46:53.601Z,3.77
2022-11-24T17:49:29.881Z,3.30
2022-11-24T17:52:00.687Z,4.00
2022-11-24T17:54:46.048Z,3.87
2022-11-24T17:57:15.985Z,2.37
2022-11-24T17:59:44.956Z,4.03
2022-11-24T18:02:13.000Z,3.60
2022-11-24T18:04:41.063Z,3.80
2022-11-24T18:07:09.599Z,3.87
2022-11-24T18:09:40.111Z,3.00
2022-11-24T18:12:09.658Z,3.30
2022-11-24T18:14:39.040Z,3.07
2022-11-24T18:17:09.770Z,3.80
2022-11-24T18:19:38.312Z,4.30
2022-11-24T18:22:06.352Z,3.60
2022-11-24T18:24:34.801Z,4.07
2022-11-24T18:27:02.815Z,3.87
2022-11-24T18:29:31.582Z,3.53
2022-11-24T18:32:01.771Z,3.40
2022-11-24T18:34:29.879Z,3.60
2022-11-24T18:37:00.237Z,3.57
2022-11-24T18:39:30.084Z,3.23
2022-11-24T18:41:58.143Z,3.47
2022-11-24T18:44:26.160Z,4.43
2022-11-24T18:46:55.509Z,4.13
2022-11-24T18:49:26.934Z,3.47
2022-11-24T18:52:06.897Z,3.30
2022-11-24T18:54:35.195Z,2.77
2022-11-24T18:57:05.382Z,3.10
2022-11-24T18:59:33.874Z,3.20
2022-11-24T19:02:01.892Z,4.27
2022-11-24T19:04:34.571Z,3.37
2022-11-24T19:07:03.043Z,3.30
2022-11-24T19:09:31.054Z,2.90
2022-11-24T19:12:00.054Z,3.47
2022-11-24T19:14:28.138Z,3.27
2022-11-24T19:17:01.195Z,3.43
2022-11-24T19:19:34.596Z,3.70
2022-11-24T19:22:03.472Z,3.73
2022-11-24T19:24:31.468Z,2.93
2022-11-24T19:27:00.471Z,3.10
2022-11-24T19:29:28.450Z,3.20
2022-11-24T19:31:56.940Z,4.30
2022-11-24T19:34:25.540Z,3.10
2022-11-24T19:36:55.055Z,3.30
2022-11-24T19:39:23.194Z,3.20
2022-11-24T19:41:51.582Z,3.33
2022-11-24T19:44:21.812Z,5.57
2022-11-24T19:46:52.608Z,4.40
2022-11-24T19:49:24.481Z,3.07
2022-11-24T19:51:58.525Z,3.90
2022-11-24T19:54:26.903Z,3.43
2022-11-24T19:56:59.171Z,3.27
2022-11-24T19:59:27.449Z,3.00
2022-11-24T20:01:57.059Z,3.47
2022-11-24T20:04:25.438Z,3.07
2022-11-24T20:06:53.674Z,3.07
2022-11-24T20:09:23.637Z,3.47
2022-11-24T20:11:52.070Z,2.73
2022-11-24T20:14:20.252Z,3.17
2022-11-24T20:16:48.885Z,3.47
2022-11-24T20:19:18.618Z,3.90
2022-11-24T20:21:50.253Z,3.17
2022-11-24T20:24:20.760Z,2.90
2022-11-24T20:26:56.600Z,3.73
2022-11-24T20:29:25.554Z,3.83
2022-11-24T20:31:55.785Z,3.30
2022-11-24T20:34:24.509Z,3.00
2022-11-24T20:36:55.668Z,3.10
2022-11-24T20:39:29.623Z,4.07
2022-11-24T20:41:59.447Z,3.50
2022-11-24T20:44:30.105Z,3.00
2022-11-24T20:47:00.267Z,2.70
2022-11-24T20:49:30.007Z,3.47
2022-11-24T20:51:58.180Z,3.07
2022-11-24T20:54:26.459Z,2.93
2022-11-24T20:56:55.108Z,3.17
2022-11-24T20:59:25.853Z,3.37
2022-11-24T21:01:56.610Z,3.17
2022-11-24T21:04:26.170Z,2.70
2022-11-24T21:06:54.586Z,2.70
2022-11-24T21:09:22.687Z,3.10
2022-11-24T21:11:50.838Z,3.63
2022-11-24T21:14:20.945Z,3.17
2022-11-24T21:16:50.817Z,3.10
2022-11-24T21:19:21.405Z,3.87
2022-11-24T21:21:50.452Z,3.50
2022-11-24T21:24:21.396Z,3.10
2022-11-24T21:26:51.834Z,2.90
2022-11-24T21:29:23.245Z,3.70
2022-11-24T21:31:53.400Z,3.73
2022-11-24T21:34:24.095Z,3.50
2022-11-24T21:36:52.727Z,3.57
2022-11-24T21:39:20.886Z,2.87
2022-11-24T21:41:49.343Z,3.07
2022-11-24T21:44:17.485Z,3.10
2022-11-24T21:46:51.119Z,2.90
2022-11-24T21:49:25.401Z,2.77
2022-11-24T21:51:55.711Z,3.20
2022-11-24T21:54:24.942Z,2.70
2022-11-24T21:56:54.579Z,2.80
2022-11-24T21:59:22.784Z,2.83
2022-11-24T22:01:51.148Z,2.87
2022-11-24T22:04:19.526Z,3.03
2022-11-24T22:06:54.065Z,2.90
2022-11-24T22:09:23.707Z,2.70
2022-11-24T22:11:53.037Z,3.53
2022-11-24T22:14:21.242Z,2.57
2022-11-24T22:16:49.587Z,3.23
2022-11-24T22:19:17.627Z,3.23
2022-11-24T22:21:46.120Z,3.43
2022-11-24T22:24:15.539Z,3.20
2022-11-24T22:26:44.410Z,2.57
2022-11-24T22:29:12.381Z,3.60
2022-11-24T22:31:40.600Z,2.90
2022-11-24T22:34:11.505Z,3.30
2022-11-24T22:36:41.872Z,2.80
2022-11-24T22:39:20.895Z,3.20
2022-11-24T22:41:52.659Z,3.07
2022-11-24T22:44:21.534Z,3.33
2022-11-24T22:46:54.160Z,2.33
2022-11-24T22:49:23.521Z,3.00
2022-11-24T22:51:51.484Z,3.57
2022-11-24T22:54:20.273Z,2.73
2022-11-24T22:56:48.724Z,3.80
2022-11-24T22:59:19.107Z,2.50
2022-11-24T23:01:48.031Z,3.83
2022-11-24T23:04:19.001Z,2.50
2022-11-24T23:06:47.886Z,2.90
2022-11-24T23:09:16.245Z,3.30
2022-11-24T23:11:46.587Z,3.20
2022-11-24T23:14:18.830Z,3.30
2022-11-24T23:16:50.822Z,3.07
2022-11-24T23:19:19.389Z,3.47
2022-11-24T23:21:49.729Z,3.37
2022-11-24T23:24:19.149Z,3.30
2022-11-24T23:26:47.586Z,3.60
2022-11-24T23:29:16.021Z,3.23
2022-11-24T23:31:44.648Z,2.10
2022-11-24T23:34:16.406Z,3.17
2022-11-24T23:36:45.238Z,3.60
2022-11-24T23:39:14.234Z,2.20
2022-11-24T23:41:42.571Z,2.40
2022-11-24T23:44:13.952Z,3.40
2022-11-24T23:46:42.021Z,2.23
2022-11-24T23:49:10.140Z,2.73
2022-11-24T23:51:51.333Z,3.27
2022-11-24T23:54:19.825Z,2.90
2022-11-24T23:56:49.030Z,3.37
2022-11-24T23:59:18.785Z,2.83
